Abbotsford International Airport

CYXX · 不列颠哥伦比亚, 加拿大

罗盘
风向 的 阿伯茨福德国际机场 7/25
风: 2 kt, 1 beaufort


2 kt
改变
0 ft 2.000 4.000 6.000 8.000 10.000
Cloud Cloud
FEW 1.400
Cloud Cloud Cloud Cloud Cloud Cloud
BKN 3.100
Cloud Cloud Cloud Cloud Cloud Cloud
BKN 4.300
Cloud Cloud Cloud Cloud Cloud Cloud Cloud Cloud
OVC 5.900
METAR CYXX 151725Z VRB02KT 10SM -RA FEW014 BKN031 BKN043 OVC059 09/07 A3000 RMK SC2NS3SC2SC1 SLP162

METAR 阿伯茨福德国际机场 - CYXX/YXX

阿伯茨福德国际机场是,加拿大中的大型机场。 该机场位于纬度49,02281和经度-122,36722。 该机场有2条跑道: 7/25 和 1/19. 本场的ICAO机场代码为CYXX。 该机场的IATA代码为YXX。 机场在Vancouver FIR中。

该航空气象观测是针对阿伯茨福德国际机场在2024年6月15日 10:25, 当地时间进行的。

机场观察

可变方向的风很小或没有风。

可见度为10 mi。

有几云在1.400 ft的高度, 碎云在3.100 ft的高度, 碎云在4.300 ft的高度 和 乌云密布在5.900 ft的高度。 破损或更高的上限为3.100 ft。

当前天气为光 雨。 温度为9 °C,阵风为8 °C。 露点为7 °C,相对湿度为87%。 海平面上的气压为30,00 inHg (QNH)。

白天

今天,太阳从05:04升起,在21:15降落。 这适用于阿伯茨福德国际机场,世界夏令时可能有所不同。 当地时间与世界标准时间之间的时差为-7 小时。 夏令时目前正在进行中。

公司介绍

在这个机场,你可以找到飞行学校。 本场上唯一已知的公司是Coastal Pacific Aviation。

体会

到Vliegles.nl去找飞行课程,跳伞和其他飞行体验。 浏览页面,了解阿伯茨福德国际机场附近所有可用的活动。 你也可以使用搜索功能来寻找你所在地附近的特定飞行课程、跳伞或其他飞行体验。

跑道

Id 标题 侧风 逆风 侧风 %
7/25 086°-266° 2 kt 100 %
1/19 026°-206° 2 kt 44 %

逆风成分最大的方向会被突出显示,并用于横风计算。 这并不一定意味着这个方向在使用。

乌云

1.400 ft FEW 几云
3.100 ft BKN 碎云
4.300 ft BKN 碎云
5.900 ft OVC 乌云密布

温度 & 天气

天气 光 雨
温度 9 °C
露点 7 °C
相对湿度 87%
风寒 8 °C
Kp-index 3 (0-9)

评论

SLP162海平面压力为30,01 inHg (30,01 inHg)
SC2NS3SC2SC1

白天

日出
05:04
中午
13:10
日落
21:15 (10:34)

小工具

你想在你的网站上有一个关于阿伯茨福德国际机场的当前航空天气(METAR)的小部件吗?

显示HTML代码
报告变更